Time;durP1;ratioP1;P1;durP2;ratioP2;P2;SDS_P1;SDS_P2;PMS_P1;PMS_P2;Temp;Humidity;BMP_temperature;BMP_pressure;BME280_temperature;BME280_humidity;BME280_pressure;Samples;Min_cycle;Max_cycle;Signal;HPM_P1;HPM_P2
2023/05/27 00:00:04;;;;;;;6.95;2.42;;;10.60;99.90;;;;;;5060694;28;20020;-83
2023/05/27 00:02:30;;;;;;;7.72;2.10;;;10.60;99.90;;;;;;5066012;28;20053;-83
2023/05/27 00:04:55;;;;;;;8.75;2.40;;;10.60;99.90;;;;;;5065023;28;20032;-83
2023/05/27 00:07:21;;;;;;;9.20;2.53;;;10.60;99.90;;;;;;5074952;28;20106;-83
2023/05/27 00:09:46;;;;;;;9.68;2.80;;;10.60;99.90;;;;;;5076454;28;20037;-83
2023/05/27 00:12:12;;;;;;;10.45;2.30;;;10.60;99.90;;;;;;5076540;28;20027;-82
2023/05/27 00:14:37;;;;;;;12.13;2.92;;;10.50;99.90;;;;;;5076129;28;20034;-83
2023/05/27 00:17:03;;;;;;;8.93;2.38;;;10.50;99.90;;;;;;5064701;28;20124;-84
2023/05/27 00:19:30;;;;;;;8.85;2.35;;;10.50;99.90;;;;;;5075827;28;20101;-83
2023/05/27 00:21:56;;;;;;;7.32;2.53;;;10.50;99.90;;;;;;5073836;28;20623;-84
2023/05/27 00:24:22;;;;;;;6.57;2.45;;;10.50;99.90;;;;;;5060507;28;20035;-83
2023/05/27 00:26:48;;;;;;;9.98;2.40;;;10.40;99.90;;;;;;5060747;28;20036;-83
2023/05/27 00:29:15;;;;;;;7.57;2.53;;;10.40;99.90;;;;;;5059311;28;20394;-83
2023/05/27 00:31:41;;;;;;;9.63;2.35;;;10.40;99.90;;;;;;5065323;28;20027;-82
2023/05/27 00:34:06;;;;;;;8.25;2.42;;;10.30;99.90;;;;;;5065445;28;20020;-82
2023/05/27 00:36:32;;;;;;;8.75;3.03;;;10.30;99.90;;;;;;5075715;28;20032;-82
2023/05/27 00:38:58;;;;;;;9.05;2.75;;;10.30;99.90;;;;;;5059780;28;20032;-83
2023/05/27 00:41:24;;;;;;;8.45;2.40;;;10.30;99.90;;;;;;5064125;28;20386;-83
2023/05/27 00:43:50;;;;;;;9.07;2.60;;;10.30;99.90;;;;;;5074019;28;20111;-83
2023/05/27 00:46:15;;;;;;;6.45;1.98;;;10.30;99.90;;;;;;5065291;28;20047;-82
2023/05/27 00:48:42;;;;;;;5.65;2.20;;;10.20;99.90;;;;;;5065464;28;20024;-84
2023/05/27 00:51:08;;;;;;;7.90;2.10;;;10.20;99.90;;;;;;5058811;28;20044;-83
2023/05/27 00:53:42;;;;;;;8.63;2.35;;;10.10;99.90;;;;;;5075676;28;20024;-84
2023/05/27 00:56:15;;;;;;;7.93;2.40;;;10.20;99.90;;;;;;5060110;28;20025;-84
2023/05/27 00:58:41;;;;;;;8.05;2.20;;;10.10;99.90;;;;;;5074957;28;20025;-83
2023/05/27 01:01:07;;;;;;;9.23;2.42;;;10.00;99.90;;;;;;5075084;28;20039;-83
2023/05/27 01:03:33;;;;;;;9.45;2.22;;;10.00;99.90;;;;;;5058821;28;20427;-82
2023/05/27 01:06:11;;;;;;;7.70;2.40;;;10.00;99.90;;;;;;5057862;28;20402;-83
2023/05/27 01:08:58;;;;;;;10.43;2.65;;;10.00;99.90;;;;;;5059093;28;20102;-83
2023/05/27 01:11:28;;;;;;;7.93;2.42;;;10.00;99.90;;;;;;5075959;28;20097;-82
2023/05/27 01:13:59;;;;;;;13.95;3.20;;;9.90;99.90;;;;;;5075591;28;20115;-83
2023/05/27 01:16:27;;;;;;;10.23;2.53;;;9.90;99.90;;;;;;5066120;28;20049;-83
2023/05/27 01:18:56;;;;;;;5.60;2.28;;;9.90;99.90;;;;;;5056305;28;20131;-82
2023/05/27 01:21:24;;;;;;;9.48;2.80;;;9.80;99.90;;;;;;5058398;28;20024;-82
2023/05/27 01:23:51;;;;;;;6.68;2.03;;;9.80;99.90;;;;;;5057411;28;20097;-83
2023/05/27 01:26:17;;;;;;;7.40;2.42;;;9.80;99.90;;;;;;5074317;28;20466;-82
2023/05/27 01:28:43;;;;;;;8.65;2.58;;;9.80;99.90;;;;;;5075281;28;20027;-82
2023/05/27 01:31:21;;;;;;;6.47;2.03;;;9.70;99.90;;;;;;5063839;28;20028;-82
2023/05/27 01:33:55;;;;;;;7.03;2.17;;;9.70;99.90;;;;;;5056658;28;20468;-82
2023/05/27 01:36:24;;;;;;;7.85;1.92;;;9.70;99.90;;;;;;5064220;28;20397;-83
2023/05/27 01:38:52;;;;;;;7.30;2.40;;;9.70;99.90;;;;;;5057304;28;20017;-83
2023/05/27 01:41:19;;;;;;;8.25;3.15;;;9.60;99.90;;;;;;5074117;28;20524;-82
2023/05/27 01:43:45;;;;;;;4.30;1.52;;;9.60;99.90;;;;;;5074190;28;20035;-82
2023/05/27 01:46:11;;;;;;;6.72;2.00;;;9.60;99.90;;;;;;5065219;28;20036;-83
2023/05/27 01:48:36;;;;;;;6.82;2.72;;;9.60;99.90;;;;;;5071769;28;20035;-83
2023/05/27 01:51:02;;;;;;;7.60;2.17;;;9.60;99.90;;;;;;5063003;28;20032;-83
2023/05/27 01:53:27;;;;;;;9.90;3.20;;;9.50;99.90;;;;;;5062144;28;20032;-83
2023/05/27 01:55:53;;;;;;;8.00;2.20;;;9.50;99.90;;;;;;5062828;28;20076;-82
2023/05/27 01:58:19;;;;;;;6.70;2.10;;;9.50;99.90;;;;;;5056692;28;20024;-83
2023/05/27 02:00:44;;;;;;;7.88;2.38;;;9.50;99.90;;;;;;5075885;28;20035;-83
2023/05/27 02:03:10;;;;;;;10.27;2.58;;;9.50;99.90;;;;;;5063084;28;20497;-82
2023/05/27 02:05:36;;;;;;;6.88;2.10;;;9.50;99.90;;;;;;5073919;28;20036;-83
2023/05/27 02:08:02;;;;;;;7.45;2.33;;;9.40;99.90;;;;;;5073332;28;21734;-83
2023/05/27 02:10:28;;;;;;;7.38;2.55;;;9.40;99.90;;;;;;5073875;28;20025;-83
2023/05/27 02:12:54;;;;;;;9.68;2.80;;;9.40;99.90;;;;;;5073025;28;20024;-83
2023/05/27 02:15:23;;;;;;;7.28;2.45;;;9.40;99.90;;;;;;5063638;28;20053;-83
2023/05/27 02:17:54;;;;;;;7.28;3.05;;;9.40;99.90;;;;;;5072807;28;20016;-83
2023/05/27 02:20:21;;;;;;;5.15;2.17;;;9.30;99.90;;;;;;5065872;28;20028;-83
2023/05/27 02:22:46;;;;;;;8.55;2.22;;;9.30;99.90;;;;;;5057575;28;20056;-83
2023/05/27 02:25:12;;;;;;;6.30;2.10;;;9.30;99.90;;;;;;5052399;28;20083;-82
2023/05/27 02:27:38;;;;;;;7.40;2.20;;;9.30;99.90;;;;;;5057303;28;20037;-83
2023/05/27 02:30:03;;;;;;;8.80;2.70;;;9.30;99.90;;;;;;5060683;28;20033;-84
2023/05/27 02:32:30;;;;;;;7.30;2.40;;;9.20;99.90;;;;;;5053039;28;20102;-83
2023/05/27 02:34:57;;;;;;;13.15;3.20;;;9.30;99.90;;;;;;5050964;28;20422;-83
2023/05/27 02:37:24;;;;;;;5.70;1.90;;;9.20;99.90;;;;;;5051825;28;20029;-83
2023/05/27 02:39:49;;;;;;;5.85;2.08;;;9.20;99.90;;;;;;5055596;28;20048;-83
2023/05/27 02:42:15;;;;;;;7.10;2.30;;;9.20;99.90;;;;;;5056938;28;20115;-84
2023/05/27 02:44:40;;;;;;;6.60;2.30;;;9.10;99.90;;;;;;5056423;28;20044;-84
2023/05/27 02:47:06;;;;;;;7.05;2.42;;;9.10;99.90;;;;;;5052045;28;20114;-83
2023/05/27 02:49:31;;;;;;;6.68;2.22;;;9.10;99.90;;;;;;5057798;28;20163;-84
2023/05/27 02:51:57;;;;;;;8.13;2.10;;;9.10;99.90;;;;;;5057561;28;20384;-83
2023/05/27 02:54:22;;;;;;;8.13;2.50;;;9.10;99.90;;;;;;5057646;28;20016;-83
2023/05/27 02:56:48;;;;;;;7.95;2.22;;;9.00;99.90;;;;;;5051433;28;20043;-83
2023/05/27 02:59:13;;;;;;;5.85;2.22;;;9.00;99.90;;;;;;5053068;28;20025;-83
2023/05/27 03:01:39;;;;;;;6.03;2.33;;;9.00;99.90;;;;;;5061052;28;20025;-83
2023/05/27 03:04:05;;;;;;;6.55;2.22;;;9.00;99.90;;;;;;5054461;28;20029;-83
2023/05/27 03:06:31;;;;;;;6.32;2.58;;;8.90;99.90;;;;;;5052000;28;20039;-82
2023/05/27 03:08:57;;;;;;;6.00;2.38;;;8.90;99.90;;;;;;5056393;28;20479;-83
2023/05/27 03:11:22;;;;;;;7.30;2.53;;;8.80;99.90;;;;;;5051640;28;20056;-83
2023/05/27 03:13:48;;;;;;;8.15;2.22;;;8.80;99.90;;;;;;5057137;28;20025;-83
2023/05/27 03:16:13;;;;;;;7.70;2.50;;;8.80;99.90;;;;;;5052419;28;20429;-83
2023/05/27 03:18:39;;;;;;;7.30;2.60;;;8.70;99.90;;;;;;5052759;28;20088;-83
2023/05/27 03:21:05;;;;;;;7.28;2.30;;;8.80;99.90;;;;;;5056057;28;20358;-83
2023/05/27 03:23:30;;;;;;;7.97;2.33;;;8.70;99.90;;;;;;5059778;28;20101;-83
2023/05/27 03:25:56;;;;;;;7.30;2.05;;;8.70;99.90;;;;;;5068808;28;20024;-84
2023/05/27 03:28:21;;;;;;;5.15;2.30;;;8.70;99.90;;;;;;5061687;28;20071;-83
2023/05/27 03:30:48;;;;;;;7.07;2.72;;;8.70;99.90;;;;;;5056579;28;20024;-83
2023/05/27 03:33:14;;;;;;;7.80;2.55;;;8.70;99.90;;;;;;5056542;28;20471;-83
2023/05/27 03:35:39;;;;;;;8.02;2.42;;;8.70;99.90;;;;;;5055924;28;20033;-83
2023/05/27 03:38:05;;;;;;;6.18;1.95;;;8.70;99.90;;;;;;5055597;28;20111;-83
2023/05/27 03:40:30;;;;;;;6.50;2.30;;;8.60;99.90;;;;;;5059479;28;20371;-83
2023/05/27 03:42:56;;;;;;;8.73;2.20;;;8.60;99.90;;;;;;5056932;28;20028;-82
2023/05/27 03:45:21;;;;;;;9.15;2.17;;;8.60;99.90;;;;;;5056299;28;20120;-83
2023/05/27 03:47:47;;;;;;;7.70;2.35;;;8.60;99.90;;;;;;5055809;28;20080;-83
2023/05/27 03:50:13;;;;;;;6.43;1.80;;;8.60;99.90;;;;;;5054719;28;20119;-82
2023/05/27 03:52:38;;;;;;;8.98;2.95;;;8.60;99.90;;;;;;5059052;28;20111;-81
2023/05/27 03:55:04;;;;;;;7.50;2.25;;;8.60;99.90;;;;;;5055809;28;20053;-82
2023/05/27 03:57:30;;;;;;;5.93;1.98;;;8.60;99.90;;;;;;5056700;28;20121;-83
2023/05/27 03:59:55;;;;;;;6.43;1.48;;;8.60;99.90;;;;;;5056716;28;20603;-82
2023/05/27 04:02:21;;;;;;;5.68;1.90;;;8.60;99.90;;;;;;5054988;28;20128;-82
2023/05/27 04:04:47;;;;;;;6.70;2.10;;;8.60;99.90;;;;;;5055194;28;20139;-82
2023/05/27 04:07:13;;;;;;;7.00;1.63;;;8.60;99.90;;;;;;5056424;28;20052;-83
2023/05/27 04:09:38;;;;;;;5.88;1.98;;;8.70;99.90;;;;;;5063362;28;20035;-82
2023/05/27 04:12:05;;;;;;;8.52;2.50;;;8.60;99.90;;;;;;5059443;28;20029;-82
2023/05/27 04:14:31;;;;;;;6.85;1.95;;;8.70;99.90;;;;;;5057314;28;20379;-82
2023/05/27 04:16:56;;;;;;;7.32;1.75;;;8.70;99.90;;;;;;5063321;28;20030;-84
2023/05/27 04:19:22;;;;;;;6.15;2.05;;;8.70;99.90;;;;;;5063287;28;20129;-83
2023/05/27 04:21:48;;;;;;;5.70;1.83;;;8.70;99.90;;;;;;5056010;28;20162;-83
2023/05/27 04:24:14;;;;;;;6.75;2.17;;;8.70;99.90;;;;;;5055229;28;20051;-84
2023/05/27 04:26:40;;;;;;;4.72;2.00;;;8.80;99.90;;;;;;5055530;28;20297;-83
2023/05/27 04:29:09;;;;;;;3.83;1.58;;;8.80;99.90;;;;;;5064444;28;20493;-84
2023/05/27 04:31:36;;;;;;;5.78;1.85;;;8.80;99.90;;;;;;5059442;28;20798;-83
2023/05/27 04:34:02;;;;;;;7.78;1.85;;;8.90;99.90;;;;;;5055339;28;20024;-82
2023/05/27 04:36:32;;;;;;;5.05;1.58;;;8.90;99.90;;;;;;5054971;28;20037;-84
2023/05/27 04:39:00;;;;;;;7.28;2.20;;;8.90;99.90;;;;;;5059047;28;20425;-83
2023/05/27 04:41:28;;;;;;;7.90;2.22;;;9.00;99.90;;;;;;5059184;28;20498;-83
2023/05/27 04:44:02;;;;;;;7.00;2.22;;;9.00;99.90;;;;;;5055062;28;20051;-83
2023/05/27 04:46:28;;;;;;;8.50;2.47;;;9.10;99.90;;;;;;5054812;28;20581;-84
2023/05/27 04:48:53;;;;;;;5.97;2.30;;;9.10;99.90;;;;;;5058365;28;20359;-83
2023/05/27 04:51:19;;;;;;;8.52;2.63;;;9.20;99.90;;;;;;5055413;28;20037;-84
2023/05/27 04:53:47;;;;;;;9.20;2.70;;;9.20;99.90;;;;;;5052884;28;20067;-83
2023/05/27 04:56:15;;;;;;;7.97;2.33;;;9.30;99.90;;;;;;5059620;28;20021;-83
2023/05/27 04:58:42;;;;;;;13.05;3.40;;;9.30;99.90;;;;;;5053765;28;20487;-83
2023/05/27 05:01:16;;;;;;;8.63;2.50;;;9.30;99.90;;;;;;5059127;28;20037;-82
2023/05/27 05:04:12;;;;;;;7.10;2.90;;;9.40;99.90;;;;;;5054856;28;20702;-82
2023/05/27 05:06:39;;;;;;;8.38;2.40;;;9.40;99.90;;;;;;5054211;28;22083;-82
2023/05/27 05:09:05;;;;;;;10.88;2.85;;;9.50;99.90;;;;;;5055822;28;20036;-82
2023/05/27 05:11:31;;;;;;;7.45;2.38;;;9.50;99.90;;;;;;5055430;28;20028;-83
2023/05/27 05:13:57;;;;;;;7.43;2.53;;;9.60;99.90;;;;;;5064019;28;20075;-83
2023/05/27 05:16:22;;;;;;;8.95;2.47;;;9.60;99.90;;;;;;5054524;28;20044;-83
2023/05/27 05:18:48;;;;;;;6.88;2.00;;;9.70;99.90;;;;;;5050439;28;20359;-82
2023/05/27 05:21:13;;;;;;;5.78;2.15;;;9.70;99.90;;;;;;5053832;28;20108;-84
2023/05/27 05:23:40;;;;;;;7.85;2.15;;;9.70;99.90;;;;;;5065172;28;20059;-83
2023/05/27 05:26:08;;;;;;;9.80;2.47;;;9.80;99.90;;;;;;5075190;28;20395;-83
2023/05/27 05:28:34;;;;;;;9.38;2.50;;;9.90;99.90;;;;;;5066952;28;20024;-83
2023/05/27 05:31:00;;;;;;;4.50;2.30;;;9.90;99.90;;;;;;5057361;28;20124;-82
2023/05/27 05:33:26;;;;;;;11.52;2.58;;;10.00;99.90;;;;;;5062834;28;20024;-83
2023/05/27 05:35:52;;;;;;;7.68;2.45;;;10.00;99.90;;;;;;5063392;28;20081;-83
2023/05/27 05:38:17;;;;;;;9.32;2.67;;;10.10;99.90;;;;;;5074770;28;20096;-83
2023/05/27 05:40:48;;;;;;;7.65;2.22;;;10.10;99.90;;;;;;5059668;28;20038;-84
2023/05/27 05:43:13;;;;;;;7.70;2.05;;;10.20;99.90;;;;;;5064780;28;20037;-81
2023/05/27 05:45:39;;;;;;;10.25;3.13;;;10.20;99.90;;;;;;5056959;28;20489;-82
2023/05/27 05:48:05;;;;;;;8.27;2.28;;;10.30;99.90;;;;;;5056651;28;20387;-82
2023/05/27 05:50:30;;;;;;;8.38;2.47;;;10.40;99.90;;;;;;5074266;28;20477;-83
2023/05/27 05:52:56;;;;;;;8.13;3.13;;;10.50;99.90;;;;;;5064885;28;20020;-82
2023/05/27 05:55:21;;;;;;;7.75;2.38;;;10.50;99.90;;;;;;5074361;28;20039;-82
2023/05/27 05:57:47;;;;;;;6.43;1.85;;;10.50;99.90;;;;;;5074907;28;20786;-82
2023/05/27 06:00:14;;;;;;;8.30;2.13;;;10.60;99.90;;;;;;5057734;28;20340;-80
2023/05/27 06:02:39;;;;;;;7.85;2.72;;;10.70;99.90;;;;;;5074001;28;20466;-82
2023/05/27 06:05:05;;;;;;;8.25;2.75;;;10.70;99.90;;;;;;5063624;28;20508;-83
2023/05/27 06:07:31;;;;;;;7.78;2.35;;;10.80;99.90;;;;;;5057466;28;20036;-83
2023/05/27 06:09:56;;;;;;;9.57;2.22;;;10.80;99.90;;;;;;5056610;28;20027;-83
2023/05/27 06:12:22;;;;;;;8.95;2.53;;;10.90;99.90;;;;;;5075211;28;20119;-83
2023/05/27 06:14:47;;;;;;;5.97;2.20;;;10.90;99.90;;;;;;5073449;28;20103;-84
2023/05/27 06:17:13;;;;;;;7.38;3.15;;;11.00;99.90;;;;;;5073670;28;20036;-84
2023/05/27 06:19:39;;;;;;;6.43;2.35;;;11.00;99.90;;;;;;5060651;28;20429;-85
2023/05/27 06:22:05;;;;;;;8.40;2.22;;;11.00;99.90;;;;;;5055723;28;20093;-84
2023/05/27 06:24:31;;;;;;;10.98;2.67;;;11.10;99.90;;;;;;5074001;28;20124;-85
2023/05/27 06:26:56;;;;;;;9.10;2.38;;;11.10;99.90;;;;;;5073331;28;20043;-83
2023/05/27 06:29:22;;;;;;;7.05;2.38;;;11.20;99.90;;;;;;5073753;28;20020;-85
2023/05/27 06:31:48;;;;;;;11.85;2.97;;;11.20;99.90;;;;;;5071498;28;20035;-85
2023/05/27 06:34:15;;;;;;;8.95;3.22;;;11.30;99.90;;;;;;5057156;28;22057;-84
2023/05/27 06:36:40;;;;;;;11.30;3.17;;;11.30;99.90;;;;;;5073757;28;20028;-85
2023/05/27 06:39:07;;;;;;;8.60;3.17;;;11.30;99.90;;;;;;5059361;28;20303;-86
2023/05/27 06:41:32;;;;;;;10.27;2.35;;;11.40;99.90;;;;;;5062560;28;20043;-85
2023/05/27 06:43:58;;;;;;;7.57;2.35;;;11.40;99.90;;;;;;5073047;28;20028;-83
2023/05/27 06:46:24;;;;;;;9.23;2.80;;;11.40;99.90;;;;;;5072668;28;20067;-85
2023/05/27 06:48:49;;;;;;;7.43;2.72;;;11.50;99.90;;;;;;5058350;28;20103;-85
2023/05/27 06:51:15;;;;;;;8.25;2.60;;;11.50;99.90;;;;;;5073783;28;20078;-84
2023/05/27 06:53:41;;;;;;;8.85;2.55;;;11.60;99.90;;;;;;5057292;28;20024;-86
2023/05/27 06:56:06;;;;;;;10.48;3.05;;;11.70;99.90;;;;;;5074131;28;20175;-84
2023/05/27 06:58:32;;;;;;;10.68;3.40;;;11.70;99.90;;;;;;5063063;28;20036;-84
2023/05/27 07:00:57;;;;;;;6.05;2.60;;;11.80;99.90;;;;;;5057530;28;20032;-84
2023/05/27 07:03:23;;;;;;;9.50;2.72;;;11.90;99.90;;;;;;5073227;28;20469;-84
2023/05/27 07:05:49;;;;;;;10.32;3.83;;;11.90;99.90;;;;;;5065942;28;20028;-83
2023/05/27 07:08:15;;;;;;;10.27;3.63;;;11.90;99.90;;;;;;5054599;28;20187;-83
2023/05/27 07:10:40;;;;;;;10.45;3.47;;;11.90;99.90;;;;;;5074049;28;20021;-85
2023/05/27 07:13:06;;;;;;;9.80;3.00;;;11.90;99.90;;;;;;5072573;28;20048;-83
2023/05/27 07:15:32;;;;;;;6.28;2.55;;;12.00;99.90;;;;;;5061478;28;20470;-85
2023/05/27 07:17:58;;;;;;;7.72;2.45;;;12.10;99.90;;;;;;5061995;28;20029;-84
2023/05/27 07:20:23;;;;;;;7.60;2.58;;;12.10;99.90;;;;;;5072618;28;20028;-84
2023/05/27 07:22:49;;;;;;;7.88;2.67;;;12.20;99.90;;;;;;5056349;28;20036;-83
2023/05/27 07:25:15;;;;;;;10.68;3.38;;;12.30;99.90;;;;;;5053841;28;20567;-84
2023/05/27 07:27:40;;;;;;;7.57;2.75;;;12.40;99.90;;;;;;5057196;28;20114;-84
2023/05/27 07:30:07;;;;;;;10.77;3.45;;;12.40;99.90;;;;;;5051295;28;20033;-82
2023/05/27 07:32:33;;;;;;;9.88;3.22;;;12.50;99.90;;;;;;5051573;28;20081;-83
2023/05/27 07:34:58;;;;;;;8.40;2.97;;;12.60;99.90;;;;;;5057224;28;20029;-84
2023/05/27 07:37:26;;;;;;;11.52;3.33;;;12.60;99.90;;;;;;5055154;28;20444;-82
2023/05/27 07:39:51;;;;;;;9.48;3.35;;;12.70;99.90;;;;;;5053419;28;20025;-83
2023/05/27 07:42:17;;;;;;;7.57;2.92;;;12.70;99.90;;;;;;5054373;28;20036;-86
2023/05/27 07:44:43;;;;;;;9.73;3.45;;;12.80;99.90;;;;;;5055166;28;20029;-88
2023/05/27 07:47:08;;;;;;;8.77;3.47;;;13.00;99.90;;;;;;5055279;28;20041;-87
2023/05/27 07:49:34;;;;;;;10.18;3.35;;;13.10;99.90;;;;;;5055754;28;20531;-86
2023/05/27 07:51:59;;;;;;;13.88;3.28;;;13.10;99.90;;;;;;5056105;28;20024;-87
2023/05/27 07:54:26;;;;;;;8.80;3.20;;;13.20;99.90;;;;;;5057822;28;20475;-86
2023/05/27 07:56:52;;;;;;;9.00;3.58;;;13.30;99.90;;;;;;5055428;28;20051;-84
2023/05/27 07:59:18;;;;;;;7.28;3.15;;;13.30;99.90;;;;;;5054953;28;20386;-83
2023/05/27 08:01:43;;;;;;;8.65;3.15;;;13.40;99.90;;;;;;5054241;28;20387;-82
2023/05/27 08:04:09;;;;;;;10.45;3.83;;;13.50;99.90;;;;;;5055750;28;20017;-83
2023/05/27 08:06:35;;;;;;;7.80;3.15;;;13.50;99.90;;;;;;5055071;28;20090;-84
2023/05/27 08:09:04;;;;;;;6.82;2.95;;;13.50;99.90;;;;;;5057428;28;20029;-83
2023/05/27 08:11:31;;;;;;;11.45;3.45;;;13.60;99.90;;;;;;5055979;28;20140;-83
2023/05/27 08:13:57;;;;;;;8.07;3.45;;;13.70;99.90;;;;;;5054430;28;20017;-84
2023/05/27 08:16:22;;;;;;;11.10;4.10;;;13.80;99.90;;;;;;5055091;28;20039;-83
2023/05/27 08:18:48;;;;;;;7.63;2.90;;;14.00;99.90;;;;;;5059894;28;20029;-80
2023/05/27 08:21:14;;;;;;;9.82;3.35;;;14.10;99.90;;;;;;5056262;28;20135;-82
2023/05/27 08:23:39;;;;;;;9.07;3.50;;;14.20;99.90;;;;;;5077303;28;20119;-82
2023/05/27 08:26:05;;;;;;;10.18;3.67;;;14.20;99.90;;;;;;5064812;28;20641;-81
2023/05/27 08:28:34;;;;;;;11.30;4.38;;;14.30;99.90;;;;;;5059972;28;20497;-81
2023/05/27 08:31:00;;;;;;;12.15;4.13;;;14.40;99.90;;;;;;5059775;28;20696;-82
2023/05/27 08:33:26;;;;;;;9.93;3.22;;;14.40;99.90;;;;;;5066149;28;20092;-84
2023/05/27 08:35:52;;;;;;;11.85;4.00;;;14.60;99.90;;;;;;5065057;28;20037;-84
2023/05/27 08:38:17;;;;;;;6.10;3.00;;;14.60;99.90;;;;;;5065615;28;20371;-90
2023/05/27 08:40:44;;;;;;;7.70;3.42;;;14.70;99.90;;;;;;5066943;28;20565;-87
2023/05/27 08:43:10;;;;;;;11.07;3.95;;;14.80;99.90;;;;;;5060190;28;20028;-84
2023/05/27 08:45:36;;;;;;;9.90;3.88;;;14.90;99.90;;;;;;5075709;28;20141;-84
2023/05/27 08:48:02;;;;;;;8.48;3.10;;;15.00;99.90;;;;;;5074851;28;20513;-85
2023/05/27 08:50:28;;;;;;;8.05;3.50;;;15.10;99.90;;;;;;5066445;28;20028;-85
2023/05/27 08:52:54;;;;;;;11.70;4.00;;;15.20;99.90;;;;;;5060830;28;20295;-86
2023/05/27 08:55:21;;;;;;;11.13;4.07;;;15.30;99.90;;;;;;5065831;28;20020;-83
2023/05/27 08:57:55;;;;;;;10.60;3.70;;;15.40;99.90;;;;;;5059772;28;20081;-88
2023/05/27 09:00:21;;;;;;;10.27;3.67;;;15.50;99.90;;;;;;5060245;28;20036;-85
2023/05/27 09:02:47;;;;;;;9.23;3.30;;;15.70;99.90;;;;;;5074614;28;20029;-84
2023/05/27 09:05:14;;;;;;;9.40;3.95;;;15.90;99.90;;;;;;5076116;28;20073;-85
2023/05/27 09:07:41;;;;;;;8.80;3.78;;;16.00;99.90;;;;;;5061384;28;20554;-86
2023/05/27 09:10:07;;;;;;;9.13;4.00;;;16.10;99.90;;;;;;5059847;28;20028;-85
2023/05/27 09:12:34;;;;;;;8.90;3.35;;;16.30;99.90;;;;;;5066599;28;20437;-85
2023/05/27 09:14:59;;;;;;;8.90;3.33;;;16.40;99.90;;;;;;5057525;28;20031;-85
2023/05/27 09:17:25;;;;;;;9.57;3.35;;;16.50;99.90;;;;;;5074970;28;20032;-85
2023/05/27 09:19:52;;;;;;;9.70;3.20;;;16.70;99.90;;;;;;5074517;28;20020;-85
2023/05/27 09:22:23;;;;;;;8.45;3.25;;;16.70;99.90;;;;;;5064009;28;20765;-85
2023/05/27 09:24:51;;;;;;;8.32;3.40;;;16.90;99.90;;;;;;5073856;28;20229;-84
2023/05/27 09:27:17;;;;;;;7.13;3.47;;;17.00;99.90;;;;;;5063713;28;20042;-84
2023/05/27 09:29:42;;;;;;;15.05;4.63;;;17.20;99.90;;;;;;5074628;28;20024;-84
2023/05/27 09:32:08;;;;;;;9.38;3.28;;;17.80;99.90;;;;;;5063180;28;20028;-84
2023/05/27 09:34:40;;;;;;;10.32;3.40;;;19.00;99.90;;;;;;5062855;28;20495;-84
2023/05/27 09:37:15;;;;;;;11.43;4.00;;;20.20;99.90;;;;;;5060452;28;20118;-84
2023/05/27 09:39:41;;;;;;;11.73;3.88;;;21.00;99.90;;;;;;5059946;28;20784;-85
2023/05/27 09:42:07;;;;;;;9.98;2.97;;;21.70;99.90;;;;;;5050962;28;20115;-85
2023/05/27 09:44:38;;;;;;;9.15;2.97;;;22.20;99.90;;;;;;5056976;28;20466;-85
2023/05/27 09:47:05;;;;;;;5.95;2.60;;;22.90;99.90;;;;;;5063964;28;20032;-86
2023/05/27 09:49:34;;;;;;;8.00;3.05;;;23.40;99.90;;;;;;5075553;28;20399;-84
2023/05/27 09:52:01;;;;;;;7.32;3.30;;;23.80;99.90;;;;;;5074321;28;20154;-84
2023/05/27 09:54:27;;;;;;;10.20;3.47;;;24.10;99.90;;;;;;5075137;28;20106;-87
2023/05/27 09:56:53;;;;;;;7.95;3.10;;;24.50;99.90;;;;;;5057625;28;20103;-88
2023/05/27 09:59:18;;;;;;;9.57;3.65;;;24.80;99.90;;;;;;5074230;28;20182;-83
2023/05/27 10:01:49;;;;;;;8.60;3.13;;;25.20;99.90;;;;;;5064178;28;20040;-87
2023/05/27 10:04:17;;;;;;;8.63;2.70;;;25.40;99.90;;;;;;5061459;28;20032;-84
2023/05/27 10:06:45;;;;;;;9.23;3.70;;;25.60;99.90;;;;;;5065886;28;20044;-85
2023/05/27 10:09:12;;;;;;;10.98;3.92;;;25.60;99.40;;;;;;5064849;28;20029;-84
2023/05/27 10:11:40;;;;;;;10.25;3.33;;;25.60;99.00;;;;;;5073452;28;20035;-82
2023/05/27 10:14:06;;;;;;;8.23;3.10;;;25.80;98.60;;;;;;5065499;28;20025;-83
2023/05/27 10:16:31;;;;;;;9.15;3.55;;;26.10;98.20;;;;;;5074266;28;20774;-84
2023/05/27 10:18:57;;;;;;;10.65;3.45;;;26.40;97.60;;;;;;5074124;28;20032;-86
2023/05/27 10:21:27;;;;;;;9.50;3.22;;;26.60;97.00;;;;;;5074027;28;20031;-85
2023/05/27 10:23:59;;;;;;;6.80;3.03;;;26.90;96.50;;;;;;5073770;28;20063;-87
2023/05/27 10:26:51;;;;;;;;;;;27.00;96.00;;;;;;5063671;28;20036;-85
2023/05/27 10:29:17;;;;;;;8.23;2.92;;;27.00;95.60;;;;;;5051864;28;20565;-85
2023/05/27 10:31:52;;;;;;;8.10;3.15;;;27.40;95.60;;;;;;5060904;28;20027;-86
2023/05/27 10:34:18;;;;;;;7.10;2.60;;;27.50;94.60;;;;;;5074398;28;20044;-86
2023/05/27 10:36:58;;;;;;;6.63;2.72;;;27.60;94.30;;;;;;5064055;28;20028;-85
2023/05/27 10:39:24;;;;;;;8.15;2.63;;;27.80;93.90;;;;;;5072851;28;20048;-89
2023/05/27 10:41:51;;;;;;;9.07;3.38;;;27.90;93.80;;;;;;5062673;28;20044;-86
2023/05/27 10:44:34;;;;;;;6.90;3.03;;;28.10;93.30;;;;;;5059249;28;20025;-87
2023/05/27 10:47:02;;;;;;;7.63;3.15;;;28.20;92.80;;;;;;5055556;28;20115;-86
2023/05/27 10:49:35;;;;;;;6.80;2.83;;;27.90;92.70;;;;;;5073755;28;20020;-86
2023/05/27 10:52:12;;;;;;;;;;;27.80;92.70;;;;;;5074048;28;20047;-88
2023/05/27 10:54:38;;;;;;;8.30;2.90;;;27.70;93.20;;;;;;5074058;28;19918;-87
2023/05/27 10:57:04;;;;;;;7.63;2.80;;;27.80;93.10;;;;;;5064530;28;20032;-87
2023/05/27 10:59:50;;;;;;;8.15;3.03;;;27.80;92.50;;;;;;5057813;28;20031;-87
2023/05/27 11:02:16;;;;;;;8.00;2.45;;;28.00;92.00;;;;;;5073448;28;20383;-86
2023/05/27 11:04:42;;;;;;;6.88;2.88;;;28.30;92.00;;;;;;5062971;28;20039;-87
2023/05/27 11:07:08;;;;;;;7.63;2.75;;;28.60;91.70;;;;;;5058307;28;20128;-87
2023/05/27 11:09:44;;;;;;;7.25;2.72;;;28.80;91.30;;;;;;5063079;28;20108;-86
2023/05/27 11:12:16;;;;;;;8.75;3.20;;;29.00;90.80;;;;;;5061272;28;20062;-86
2023/05/27 11:14:45;;;;;;;8.60;3.03;;;29.00;90.00;;;;;;5058043;28;20473;-87
2023/05/27 11:17:12;;;;;;;9.23;3.67;;;29.00;90.30;;;;;;5065068;28;20032;-86
2023/05/27 11:19:41;;;;;;;9.63;3.53;;;29.10;90.10;;;;;;5077396;28;20418;-87
2023/05/27 11:22:10;;;;;;;6.68;2.72;;;28.80;90.30;;;;;;5076714;28;20056;-88
2023/05/27 11:24:36;;;;;;;6.78;2.70;;;28.80;90.20;;;;;;5068648;28;20020;-85
2023/05/27 11:27:09;;;;;;;8.70;2.65;;;28.90;90.00;;;;;;5077149;28;20114;-87
2023/05/27 11:29:36;;;;;;;7.38;2.40;;;29.10;89.20;;;;;;5064878;28;20032;-86
2023/05/27 11:32:03;;;;;;;6.43;2.40;;;29.30;88.20;;;;;;5075683;28;20028;-85
2023/05/27 11:34:29;;;;;;;9.25;3.30;;;29.40;88.20;;;;;;5079015;28;20499;-86
2023/05/27 11:36:56;;;;;;;6.97;3.05;;;29.40;87.70;;;;;;5065148;28;20031;-81
2023/05/27 11:39:22;;;;;;;7.35;2.92;;;29.50;86.60;;;;;;5066937;28;20526;-80
2023/05/27 11:41:50;;;;;;;5.28;2.30;;;29.60;85.30;;;;;;5061225;28;20025;-81
2023/05/27 11:44:16;;;;;;;7.68;2.78;;;29.80;84.30;;;;;;5076721;28;20366;-80
2023/05/27 11:46:44;;;;;;;8.02;2.65;;;29.80;84.00;;;;;;5076332;28;20029;-82
2023/05/27 11:49:11;;;;;;;6.03;2.55;;;29.90;83.20;;;;;;5078790;28;20382;-82
2023/05/27 11:51:39;;;;;;;5.45;2.58;;;30.00;82.60;;;;;;5075494;28;20089;-80
2023/05/27 11:54:05;;;;;;;8.57;3.15;;;30.20;82.80;;;;;;5058270;28;20585;-80
2023/05/27 11:56:30;;;;;;;6.43;2.85;;;30.30;82.20;;;;;;5076887;28;20574;-81
2023/05/27 11:58:56;;;;;;;6.03;2.40;;;30.60;82.00;;;;;;5074950;28;20020;-81
2023/05/27 12:01:22;;;;;;;6.32;3.10;;;30.70;81.30;;;;;;5077318;28;20415;-81
2023/05/27 12:03:48;;;;;;;6.40;2.70;;;30.80;81.00;;;;;;5076504;28;20102;-81
2023/05/27 12:06:14;;;;;;;8.20;2.83;;;31.00;81.30;;;;;;5075569;28;20107;-81
2023/05/27 12:08:41;;;;;;;7.43;2.92;;;31.00;80.20;;;;;;5058977;28;20474;-80
2023/05/27 12:11:07;;;;;;;8.93;2.97;;;30.90;80.30;;;;;;5076035;28;20081;-81
2023/05/27 12:13:33;;;;;;;7.20;3.00;;;30.80;81.20;;;;;;5064301;28;20120;-80
2023/05/27 12:15:58;;;;;;;6.95;2.90;;;31.00;80.00;;;;;;5076646;28;20060;-80
2023/05/27 12:18:24;;;;;;;6.38;2.72;;;31.20;79.40;;;;;;5066417;28;20504;-81
2023/05/27 12:20:50;;;;;;;5.97;2.78;;;31.30;79.50;;;;;;5074485;28;20421;-81
2023/05/27 12:23:16;;;;;;;5.90;2.45;;;31.40;79.60;;;;;;5074886;28;20051;-80
2023/05/27 12:25:42;;;;;;;5.65;2.50;;;31.50;79.40;;;;;;5060966;28;20016;-80
2023/05/27 12:28:09;;;;;;;7.00;2.60;;;31.50;79.10;;;;;;5064182;28;20040;-82
2023/05/27 12:30:36;;;;;;;7.88;2.80;;;31.60;77.70;;;;;;5075948;28;20019;-82
2023/05/27 12:33:05;;;;;;;7.38;2.85;;;31.60;77.10;;;;;;5060296;28;22324;-80
2023/05/27 12:35:32;;;;;;;6.75;2.53;;;31.60;76.50;;;;;;5059349;28;20043;-80
2023/05/27 12:37:58;;;;;;;5.28;2.60;;;31.60;76.70;;;;;;5059204;28;20573;-82
2023/05/27 12:40:24;;;;;;;5.43;2.58;;;31.70;76.40;;;;;;5065361;28;20046;-81
2023/05/27 12:42:50;;;;;;;6.07;2.45;;;31.70;76.60;;;;;;5075267;28;20059;-81
2023/05/27 12:45:16;;;;;;;5.63;2.63;;;31.80;76.10;;;;;;5076253;28;20108;-83
2023/05/27 12:47:41;;;;;;;7.65;2.80;;;31.90;75.30;;;;;;5064773;28;20068;-85